Time;durP1;ratioP1;P1;durP2;ratioP2;P2;SDS_P1;SDS_P2;PMS_P1;PMS_P2;Temp;Humidity;BMP_temperature;BMP_pressure;BME280_temperature;BME280_humidity;BME280_pressure;Samples;Min_cycle;Max_cycle;Signal;HPM_P1;HPM_P2
2022/05/04 00:02:22;;;;;;;6.68;5.97;;;;;;;;;;6247175;23;20070;-81
2022/05/04 00:04:48;;;;;;;6.40;5.72;;;;;;;;;;6247268;23;20008;-81
2022/05/04 00:07:14;;;;;;;7.70;6.03;;;;;;;;;;6246961;23;19996;-82
2022/05/04 00:09:40;;;;;;;7.15;6.45;;;;;;;;;;6247201;23;20055;-80
2022/05/04 00:12:07;;;;;;;8.30;6.07;;;;;;;;;;6247152;23;20447;-84
2022/05/04 00:14:33;;;;;;;7.50;5.93;;;;;;;;;;6247407;23;20501;-81
2022/05/04 00:16:59;;;;;;;6.43;5.80;;;;;;;;;;6220079;23;20035;-83
2022/05/04 00:19:25;;;;;;;8.25;6.70;;;;;;;;;;6247004;23;20024;-85
2022/05/04 00:21:51;;;;;;;6.65;5.40;;;;;;;;;;6220937;23;20004;-84
2022/05/04 00:24:19;;;;;;;7.07;6.07;;;;;;;;;;6247076;23;20309;-85
2022/05/04 00:26:49;;;;;;;7.05;6.35;;;;;;;;;;6246833;23;20277;-83
2022/05/04 00:29:15;;;;;;;7.22;6.30;;;;;;;;;;6246823;23;20035;-83
2022/05/04 00:31:41;;;;;;;6.80;6.15;;;;;;;;;;6220095;23;20004;-84
2022/05/04 00:34:07;;;;;;;6.68;5.97;;;;;;;;;;6220340;23;20027;-84
2022/05/04 00:36:33;;;;;;;6.88;6.18;;;;;;;;;;6246316;23;20000;-81
2022/05/04 00:38:59;;;;;;;7.75;7.05;;;;;;;;;;6246822;23;20008;-81
2022/05/04 00:41:25;;;;;;;8.43;6.85;;;;;;;;;;6246649;23;20004;-81
2022/05/04 00:43:52;;;;;;;7.07;6.38;;;;;;;;;;6220458;23;20359;-82
2022/05/04 00:46:18;;;;;;;7.57;6.88;;;;;;;;;;6219942;23;20000;-81
2022/05/04 00:48:44;;;;;;;7.97;6.95;;;;;;;;;;6246811;23;20383;-84
2022/05/04 00:51:11;;;;;;;7.45;6.70;;;;;;;;;;6246738;23;20482;-84
2022/05/04 00:53:38;;;;;;;8.02;7.22;;;;;;;;;;6247047;23;20023;-81
2022/05/04 00:56:08;;;;;;;7.55;6.75;;;;;;;;;;6246352;23;20023;-83
2022/05/04 01:01:20;;;;;;;7.88;6.75;;;;;;;;;;6246581;23;20047;-84
2022/05/04 01:03:47;;;;;;;7.63;6.88;;;;;;;;;;6246594;23;20030;-84
2022/05/04 01:06:13;;;;;;;9.35;6.88;;;;;;;;;;6246414;23;20007;-84
2022/05/04 01:08:39;;;;;;;7.60;6.68;;;;;;;;;;6246236;23;20058;-81
2022/05/04 01:11:05;;;;;;;7.78;6.43;;;;;;;;;;6246489;23;20000;-82
2022/05/04 01:13:31;;;;;;;8.07;7.13;;;;;;;;;;6219647;23;20008;-85
2022/05/04 01:15:57;;;;;;;9.68;8.68;;;;;;;;;;6219570;23;20343;-82
2022/05/04 01:18:23;;;;;;;8.23;7.43;;;;;;;;;;6220115;23;20324;-84
2022/05/04 01:20:49;;;;;;;7.97;6.95;;;;;;;;;;6219666;23;20035;-84
2022/05/04 01:23:17;;;;;;;8.00;6.88;;;;;;;;;;6219560;23;20046;-83
2022/05/04 01:25:44;;;;;;;8.02;7.13;;;;;;;;;;6246487;23;20008;-83
2022/05/04 01:28:10;;;;;;;8.52;6.78;;;;;;;;;;6246220;23;20431;-81
2022/05/04 01:30:37;;;;;;;7.45;6.75;;;;;;;;;;6246484;23;20054;-83
2022/05/04 01:33:03;;;;;;;6.97;6.22;;;;;;;;;;6246795;23;20008;-80
2022/05/04 01:35:29;;;;;;;7.07;6.35;;;;;;;;;;6219212;23;20340;-84
2022/05/04 01:37:56;;;;;;;7.43;6.40;;;;;;;;;;6246255;23;20000;-81
2022/05/04 01:40:22;;;;;;;6.95;6.00;;;;;;;;;;6219312;23;20028;-82
2022/05/04 01:42:48;;;;;;;12.00;9.88;;;;;;;;;;6246308;23;20011;-83
2022/05/04 01:45:14;;;;;;;14.45;11.30;;;;;;;;;;6246123;23;20004;-81
2022/05/04 01:47:40;;;;;;;11.90;8.82;;;;;;;;;;6219161;23;20028;-83
2022/05/04 01:50:06;;;;;;;7.65;6.63;;;;;;;;;;6246164;23;20015;-81
2022/05/04 01:52:33;;;;;;;10.75;8.68;;;;;;;;;;6246132;23;20016;-81
2022/05/04 01:55:01;;;;;;;9.35;6.60;;;;;;;;;;6245974;23;20118;-81
2022/05/04 01:57:27;;;;;;;6.65;5.85;;;;;;;;;;6245787;23;20011;-82
2022/05/04 01:59:54;;;;;;;7.90;6.72;;;;;;;;;;6245990;23;19996;-83
2022/05/04 02:02:20;;;;;;;6.45;5.68;;;;;;;;;;6245982;23;20416;-83
2022/05/04 02:04:46;;;;;;;7.88;5.90;;;;;;;;;;6246056;23;20007;-83
2022/05/04 02:07:12;;;;;;;6.68;5.97;;;;;;;;;;6246033;23;20008;-81
2022/05/04 02:09:41;;;;;;;7.38;6.10;;;;;;;;;;6245828;23;20050;-83
2022/05/04 02:12:07;;;;;;;6.95;6.25;;;;;;;;;;6245957;23;20424;-84
2022/05/04 02:14:34;;;;;;;7.50;6.72;;;;;;;;;;6218805;23;20082;-83
2022/05/04 02:17:00;;;;;;;5.63;5.13;;;;;;;;;;6219055;23;20044;-81
2022/05/04 02:19:26;;;;;;;6.35;5.75;;;;;;;;;;6218521;23;20004;-82
2022/05/04 02:21:53;;;;;;;7.10;6.40;;;;;;;;;;6245800;23;20057;-84
2022/05/04 02:24:19;;;;;;;7.65;6.13;;;;;;;;;;6219075;23;20331;-81
2022/05/04 02:26:45;;;;;;;5.95;5.35;;;;;;;;;;6245730;23;20079;-82
2022/05/04 02:29:11;;;;;;;7.95;5.95;;;;;;;;;;6218964;23;20004;-84
2022/05/04 02:31:37;;;;;;;6.05;5.45;;;;;;;;;;6245524;23;20000;-81
2022/05/04 02:34:03;;;;;;;7.85;6.05;;;;;;;;;;6218965;23;20004;-82
2022/05/04 02:39:14;;;;;;;7.80;7.05;;;;;;;;;;6245613;23;20081;-82
2022/05/04 02:41:40;;;;;;;8.77;6.97;;;;;;;;;;6245723;23;20061;-81
2022/05/04 02:44:07;;;;;;;8.77;6.95;;;;;;;;;;6218794;23;20015;-84
2022/05/04 02:46:33;;;;;;;8.63;7.13;;;;;;;;;;6245451;23;20075;-83
2022/05/04 02:49:00;;;;;;;7.40;6.63;;;;;;;;;;6245631;23;20000;-81
2022/05/04 02:51:26;;;;;;;9.52;6.63;;;;;;;;;;6245382;23;20007;-82
2022/05/04 02:53:52;;;;;;;8.32;6.78;;;;;;;;;;6246090;23;20057;-83
2022/05/04 02:56:18;;;;;;;8.70;7.05;;;;;;;;;;6245198;23;20016;-82
2022/05/04 02:58:45;;;;;;;6.35;5.65;;;;;;;;;;6219257;23;20012;-84
2022/05/04 03:03:59;;;;;;;5.90;5.22;;;;;;;;;;6245628;23;20019;-84
2022/05/04 03:06:25;;;;;;;6.57;5.95;;;;;;;;;;6245270;23;19996;-84
2022/05/04 03:08:51;;;;;;;7.13;6.30;;;;;;;;;;6245581;23;20028;-84
2022/05/04 03:14:02;;;;;;;6.00;5.40;;;;;;;;;;6245277;23;20393;-83
2022/05/04 03:16:28;;;;;;;7.82;5.57;;;;;;;;;;6245368;23;20011;-81
2022/05/04 03:18:54;;;;;;;6.25;5.20;;;;;;;;;;6245507;23;20332;-82
2022/05/04 03:21:21;;;;;;;6.82;5.63;;;;;;;;;;6245309;23;20008;-82
2022/05/04 03:23:47;;;;;;;7.38;5.43;;;;;;;;;;6245411;23;20000;-81
2022/05/04 03:26:13;;;;;;;7.60;5.60;;;;;;;;;;6218318;23;20015;-81
2022/05/04 03:28:39;;;;;;;6.75;6.10;;;;;;;;;;6218652;23;20008;-82
2022/05/04 03:31:05;;;;;;;7.78;7.00;;;;;;;;;;6218499;23;20026;-83
2022/05/04 03:33:31;;;;;;;7.47;6.28;;;;;;;;;;6245274;23;20000;-82
2022/05/04 03:35:57;;;;;;;11.45;9.68;;;;;;;;;;6218757;23;20008;-81
2022/05/04 03:38:23;;;;;;;8.95;7.25;;;;;;;;;;6245067;23;20027;-84
2022/05/04 03:40:49;;;;;;;6.43;5.82;;;;;;;;;;6245197;23;20004;-83
2022/05/04 03:43:16;;;;;;;7.07;6.25;;;;;;;;;;6218094;23;20009;-84
2022/05/04 03:45:42;;;;;;;9.82;5.60;;;;;;;;;;6245117;23;20001;-81
2022/05/04 03:48:08;;;;;;;11.30;5.97;;;;;;;;;;6244971;23;19997;-81
2022/05/04 03:50:34;;;;;;;7.63;5.88;;;;;;;;;;6244953;23;20443;-83
2022/05/04 03:53:00;;;;;;;6.72;6.03;;;;;;;;;;6244944;23;20005;-82
2022/05/04 03:55:26;;;;;;;6.80;5.95;;;;;;;;;;6244670;23;20427;-83
2022/05/04 03:57:53;;;;;;;7.65;6.25;;;;;;;;;;6218446;23;20023;-83
2022/05/04 04:00:20;;;;;;;8.40;6.28;;;;;;;;;;6217890;23;20001;-82
2022/05/04 04:02:46;;;;;;;6.20;5.15;;;;;;;;;;6244950;23;19996;-84
2022/05/04 04:05:12;;;;;;;6.13;5.53;;;;;;;;;;6244790;23;20417;-83
2022/05/04 04:07:39;;;;;;;7.15;6.45;;;;;;;;;;6218174;23;20032;-81
2022/05/04 04:10:05;;;;;;;10.57;5.53;;;;;;;;;;6244890;23;20382;-82
2022/05/04 04:12:31;;;;;;;7.10;5.88;;;;;;;;;;6244931;23;20435;-84
2022/05/04 04:14:57;;;;;;;7.07;5.40;;;;;;;;;;6218064;23;20008;-81
2022/05/04 04:17:24;;;;;;;8.52;5.80;;;;;;;;;;6218335;23;20008;-82
2022/05/04 04:21:50;;;;;;;10.55;6.28;;;;;;;;;;6244790;23;20012;-84
2022/05/04 04:22:36;;;;;;;10.30;8.50;;;;;;;;;;6244926;23;20066;-83
2022/05/04 04:25:02;;;;;;;8.98;7.78;;;;;;;;;;6244845;23;20011;-82
2022/05/04 04:27:32;;;;;;;11.25;6.78;;;;;;;;;;6218189;23;20447;-81
2022/05/04 04:29:58;;;;;;;8.65;6.95;;;;;;;;;;6217946;23;20008;-85
2022/05/04 04:32:24;;;;;;;10.20;7.03;;;;;;;;;;6244923;23;20010;-84
2022/05/04 04:34:51;;;;;;;11.13;6.38;;;;;;;;;;6218297;23;20004;-86
2022/05/04 04:37:17;;;;;;;9.13;6.72;;;;;;;;;;6245228;23;20004;-84
2022/05/04 04:39:43;;;;;;;11.30;7.38;;;;;;;;;;6244986;23;20023;-83
2022/05/04 04:42:12;;;;;;;22.92;14.80;;;;;;;;;;6217341;23;20012;-85
2022/05/04 04:44:38;;;;;;;12.23;8.35;;;;;;;;;;6246223;23;20004;-84
2022/05/04 04:47:05;;;;;;;13.63;9.35;;;;;;;;;;6246463;23;20000;-84
2022/05/04 04:49:31;;;;;;;11.10;8.50;;;;;;;;;;6246002;23;20468;-85
2022/05/04 04:51:57;;;;;;;8.45;7.22;;;;;;;;;;6219532;23;20065;-84
2022/05/04 04:54:23;;;;;;;10.13;6.60;;;;;;;;;;6219692;22;20085;-82
2022/05/04 04:56:49;;;;;;;9.98;6.40;;;;;;;;;;6246542;23;20001;-82
2022/05/04 04:59:15;;;;;;;8.32;6.25;;;;;;;;;;6246119;23;20008;-82
2022/05/04 05:01:41;;;;;;;6.75;5.80;;;;;;;;;;6246567;23;20032;-82
2022/05/04 05:04:08;;;;;;;8.65;6.65;;;;;;;;;;6246438;23;19997;-81
2022/05/04 05:06:34;;;;;;;11.80;7.25;;;;;;;;;;6246544;23;20004;-82
2022/05/04 05:09:00;;;;;;;10.10;8.35;;;;;;;;;;6219716;23;20004;-81
2022/05/04 05:11:26;;;;;;;9.82;7.82;;;;;;;;;;6246368;23;20061;-81
2022/05/04 05:16:36;;;;;;;6.88;6.18;;;;;;;;;;6245966;23;20059;-81
2022/05/04 05:19:03;;;;;;;7.45;6.75;;;;;;;;;;6245705;23;20062;-80
2022/05/04 05:21:29;;;;;;;7.22;5.88;;;;;;;;;;6246425;23;20000;-80
2022/05/04 05:23:55;;;;;;;7.32;6.32;;;;;;;;;;6245535;23;20031;-79
2022/05/04 05:26:21;;;;;;;10.90;6.15;;;;;;;;;;6218246;23;20336;-79
2022/05/04 05:28:47;;;;;;;4.70;4.30;;;;;;;;;;6218975;23;20317;-82
2022/05/04 05:31:13;;;;;;;7.18;5.32;;;;;;;;;;6242500;23;20000;-85
2022/05/04 05:33:40;;;;;;;6.55;5.85;;;;;;;;;;6243540;23;20072;-84
2022/05/04 05:36:07;;;;;;;20.42;14.82;;;;;;;;;;6215097;23;20099;-83
2022/05/04 05:38:35;;;;;;;8.45;6.78;;;;;;;;;;6216391;23;20066;-87
2022/05/04 05:44:04;;;;;;;6.80;5.70;;;;;;;;;;6233250;23;20062;-85
2022/05/04 05:46:30;;;;;;;6.72;5.70;;;;;;;;;;6217192;23;20051;-82
2022/05/04 05:48:56;;;;;;;7.90;5.10;;;;;;;;;;6217649;23;20015;-83
2022/05/04 05:51:22;;;;;;;7.57;5.40;;;;;;;;;;6244001;23;20007;-81
2022/05/04 05:53:48;;;;;;;8.40;6.32;;;;;;;;;;6244910;23;20007;-83
2022/05/04 05:56:15;;;;;;;7.82;7.03;;;;;;;;;;6243417;23;20020;-83
2022/05/04 05:58:41;;;;;;;6.65;5.93;;;;;;;;;;6244225;23;20648;-79
2022/05/04 06:01:07;;;;;;;11.02;8.63;;;;;;;;;;6244682;23;20003;-82
2022/05/04 06:03:33;;;;;;;20.90;9.82;;;;;;;;;;6243516;23;20003;-79
2022/05/04 06:05:59;;;;;;;21.45;10.48;;;;;;;;;;6243658;23;20439;-83
2022/05/04 06:08:25;;;;;;;50.60;16.92;;;;;;;;;;6244094;23;20004;-84
2022/05/04 06:10:51;;;;;;;66.70;20.70;;;;;;;;;;6243334;23;20004;-81
2022/05/04 06:13:20;;;;;;;49.75;19.98;;;;;;;;;;6243059;23;19996;-83
2022/05/04 06:15:49;;;;;;;51.08;18.58;;;;;;;;;;6243748;23;20012;-80
2022/05/04 06:18:15;;;;;;;41.85;16.48;;;;;;;;;;6242998;23;20074;-82
2022/05/04 06:20:41;;;;;;;27.30;11.20;;;;;;;;;;6243782;23;20034;-81
2022/05/04 06:23:08;;;;;;;14.35;9.65;;;;;;;;;;6216501;23;20058;-81
2022/05/04 06:25:35;;;;;;;9.85;8.43;;;;;;;;;;6243608;23;20008;-82
2022/05/04 06:28:01;;;;;;;11.55;8.10;;;;;;;;;;6243995;23;20000;-83
2022/05/04 06:35:57;;;;;;;;;;;;;;;;;;6244038;23;20506;-82
2022/05/04 06:38:23;;;;;;;20.63;16.85;;;;;;;;;;6243547;23;19903;-79
2022/05/04 06:40:49;;;;;;;15.50;13.68;;;;;;;;;;6242983;23;20004;-82
2022/05/04 06:43:15;;;;;;;27.50;14.60;;;;;;;;;;6216568;23;20739;-82
2022/05/04 06:45:42;;;;;;;156.85;49.80;;;;;;;;;;6243301;23;20007;-80
2022/05/04 06:48:08;;;;;;;38.85;16.02;;;;;;;;;;6243571;23;20335;-81
2022/05/04 06:50:36;;;;;;;112.78;37.35;;;;;;;;;;6243242;23;20012;-80
2022/05/04 06:53:02;;;;;;;69.22;23.23;;;;;;;;;;6243487;23;20004;-80
2022/05/04 06:55:28;;;;;;;49.10;17.30;;;;;;;;;;6242997;23;20023;-81
2022/05/04 06:57:54;;;;;;;27.60;12.25;;;;;;;;;;6243567;23;20008;-82
2022/05/04 07:00:21;;;;;;;16.85;7.97;;;;;;;;;;6242161;23;19996;-84
2022/05/04 07:02:47;;;;;;;17.50;8.40;;;;;;;;;;6242920;23;20000;-82
2022/05/04 07:05:13;;;;;;;8.23;6.70;;;;;;;;;;6243728;23;20004;-81
2022/05/04 07:07:39;;;;;;;6.03;5.47;;;;;;;;;;6243554;23;20006;-83
2022/05/04 07:10:05;;;;;;;6.53;5.93;;;;;;;;;;6244116;23;20486;-83
2022/05/04 07:12:34;;;;;;;9.45;7.38;;;;;;;;;;6244127;23;20044;-82
2022/05/04 07:15:03;;;;;;;29.80;25.63;;;;;;;;;;6244466;23;20335;-82
2022/05/04 07:17:29;;;;;;;16.88;12.35;;;;;;;;;;6243680;23;20016;-81
2022/05/04 07:19:55;;;;;;;13.90;7.10;;;;;;;;;;6244248;23;20000;-83
2022/05/04 07:22:23;;;;;;;9.93;6.85;;;;;;;;;;6216448;23;20008;-84
2022/05/04 07:24:49;;;;;;;9.82;6.93;;;;;;;;;;6242908;23;20000;-80
2022/05/04 07:27:15;;;;;;;7.63;6.88;;;;;;;;;;6244197;23;20000;-80
2022/05/04 07:29:46;;;;;;;10.70;7.15;;;;;;;;;;6242223;23;20000;-78
2022/05/04 07:32:12;;;;;;;14.30;8.23;;;;;;;;;;6242725;23;20012;-80
2022/05/04 07:34:40;;;;;;;11.65;9.43;;;;;;;;;;6243667;23;20023;-81
2022/05/04 07:37:06;;;;;;;17.80;9.18;;;;;;;;;;6243342;23;20111;-83
2022/05/04 07:42:27;;;;;;;38.53;19.10;;;;;;;;;;6243693;23;20117;-82
2022/05/04 07:45:06;;;;;;;12.75;9.50;;;;;;;;;;6242603;23;20315;-87
2022/05/04 07:47:34;;;;;;;20.80;13.07;;;;;;;;;;6243085;23;20004;-82
2022/05/04 07:50:01;;;;;;;33.67;14.77;;;;;;;;;;6243518;23;19996;-78
2022/05/04 07:52:27;;;;;;;13.55;10.18;;;;;;;;;;6243269;23;20008;-78
2022/05/04 07:54:54;;;;;;;8.73;7.07;;;;;;;;;;6243455;23;20062;-84
2022/05/04 07:57:20;;;;;;;9.80;8.07;;;;;;;;;;6243615;23;20098;-84
2022/05/04 08:04:16;;;;;;;12.70;8.82;;;;;;;;;;6242585;23;20099;-80
2022/05/04 08:05:18;;;;;;;13.02;8.27;;;;;;;;;;6243639;23;20059;-81
2022/05/04 08:07:44;;;;;;;10.60;8.20;;;;;;;;;;6242874;23;20080;-81
2022/05/04 08:10:10;;;;;;;7.68;6.10;;;;;;;;;;6243933;23;20308;-81
2022/05/04 08:12:36;;;;;;;8.90;7.55;;;;;;;;;;6242417;23;19997;-79
2022/05/04 08:15:02;;;;;;;17.00;9.55;;;;;;;;;;6242731;23;20012;-82
2022/05/04 08:17:28;;;;;;;8.25;7.13;;;;;;;;;;6215074;23;20008;-81
2022/05/04 08:19:55;;;;;;;10.02;6.70;;;;;;;;;;6244578;23;20031;-82
2022/05/04 08:22:21;;;;;;;7.88;6.28;;;;;;;;;;6245151;23;20001;-81
2022/05/04 08:24:47;;;;;;;7.07;6.32;;;;;;;;;;6244665;23;20050;-81
2022/05/04 08:27:13;;;;;;;8.40;6.03;;;;;;;;;;6244284;23;20004;-81
2022/05/04 08:29:40;;;;;;;78.10;27.58;;;;;;;;;;6244563;23;20010;-78
2022/05/04 08:32:09;;;;;;;227.82;67.03;;;;;;;;;;6243706;23;20455;-79
2022/05/04 08:34:35;;;;;;;226.63;70.47;;;;;;;;;;6244716;23;20004;-78
2022/05/04 08:37:01;;;;;;;216.10;67.10;;;;;;;;;;6244514;23;20139;-78
2022/05/04 08:39:27;;;;;;;170.57;56.70;;;;;;;;;;6244726;23;20075;-77
2022/05/04 08:41:54;;;;;;;141.40;46.08;;;;;;;;;;6244630;23;20012;-76
2022/05/04 08:44:20;;;;;;;135.30;44.38;;;;;;;;;;6218264;23;20004;-79
2022/05/04 08:46:46;;;;;;;123.57;39.35;;;;;;;;;;6244162;23;20058;-83
2022/05/04 08:49:13;;;;;;;88.68;28.30;;;;;;;;;;6244455;23;20028;-79
2022/05/04 08:51:39;;;;;;;68.78;22.92;;;;;;;;;;6244898;23;20011;-83
2022/05/04 08:54:06;;;;;;;64.32;19.92;;;;;;;;;;6245258;23;20056;-78
2022/05/04 08:56:33;;;;;;;136.35;44.15;;;;;;;;;;6244211;23;20095;-84
2022/05/04 08:59:02;;;;;;;253.32;75.43;;;;;;;;;;6243733;23;20074;-82
2022/05/04 09:01:28;;;;;;;411.60;124.80;;;;;;;;;;6244476;23;20458;-78
2022/05/04 09:03:54;;;;;;;206.43;61.85;;;;;;;;;;6243597;23;20000;-75
2022/05/04 09:06:41;;;;;;;222.95;67.30;;;;;;;;;;6244736;23;19996;-77
2022/05/04 09:09:11;;;;;;;132.85;41.80;;;;;;;;;;6244098;23;20004;-79
2022/05/04 09:11:56;;;;;;;148.43;44.67;;;;;;;;;;6243674;23;20019;-82
2022/05/04 09:14:25;;;;;;;221.77;66.53;;;;;;;;;;6244747;23;20103;-79
2022/05/04 09:16:52;;;;;;;17.17;8.25;;;;;;;;;;6218193;23;20019;-82
2022/05/04 09:19:19;;;;;;;6.28;4.30;;;;;;;;;;6244079;23;20328;-83
2022/05/04 09:21:47;;;;;;;12.00;6.50;;;;;;;;;;6243725;23;20023;-83
2022/05/04 09:24:15;;;;;;;4.03;3.50;;;;;;;;;;6244082;23;20012;-79
2022/05/04 09:26:42;;;;;;;3.88;3.50;;;;;;;;;;6244392;23;20114;-81
2022/05/04 09:29:11;;;;;;;4.32;3.80;;;;;;;;;;6243189;23;20000;-83
2022/05/04 09:31:39;;;;;;;5.00;4.03;;;;;;;;;;6243822;23;20030;-81
2022/05/04 09:34:07;;;;;;;7.00;3.80;;;;;;;;;;6244154;23;20007;-79
2022/05/04 09:36:33;;;;;;;5.38;3.63;;;;;;;;;;6244659;23;20082;-80
2022/05/04 09:47:21;;;;;;;7.22;3.92;;;;;;;;;;6244351;23;20099;-81
2022/05/04 09:49:48;;;;;;;27.70;11.00;;;;;;;;;;6244876;23;20007;-79
2022/05/04 09:52:16;;;;;;;6.45;3.70;;;;;;;;;;6245538;23;20169;-83
2022/05/04 09:54:42;;;;;;;5.68;3.83;;;;;;;;;;6244424;23;20028;-82
2022/05/04 09:57:08;;;;;;;4.78;2.83;;;;;;;;;;6244499;23;20008;-81
2022/05/04 09:59:36;;;;;;;35.38;12.70;;;;;;;;;;6217104;23;20524;-85
2022/05/04 10:02:03;;;;;;;35.42;13.25;;;;;;;;;;6244044;23;20004;-80
2022/05/04 10:04:34;;;;;;;39.20;14.73;;;;;;;;;;6244182;23;20000;-86
2022/05/04 10:07:00;;;;;;;14.77;6.03;;;;;;;;;;6217160;23;20075;-84
2022/05/04 10:09:27;;;;;;;16.90;7.05;;;;;;;;;;6216413;23;20435;-79
2022/05/04 10:11:57;;;;;;;10.88;5.35;;;;;;;;;;6216461;23;20012;-80
2022/05/04 10:14:27;;;;;;;4.57;2.35;;;;;;;;;;6244262;23;20085;-80
2022/05/04 10:16:55;;;;;;;3.35;2.42;;;;;;;;;;6244190;23;20008;-78
2022/05/04 10:19:29;;;;;;;3.95;2.67;;;;;;;;;;6244142;23;20080;-84
2022/05/04 10:21:57;;;;;;;3.72;2.45;;;;;;;;;;6243037;23;20011;-79
2022/05/04 10:24:26;;;;;;;4.65;2.55;;;;;;;;;;6244037;23;20012;-79
2022/05/04 10:27:01;;;;;;;3.22;2.10;;;;;;;;;;6217087;23;20393;-82
2022/05/04 10:32:31;;;;;;;2.45;1.95;;;;;;;;;;6243524;23;20015;-80
2022/05/04 10:35:15;;;;;;;4.15;2.10;;;;;;;;;;6244357;23;20004;-84
2022/05/04 10:38:00;;;;;;;3.33;1.90;;;;;;;;;;6243997;23;20383;-80
2022/05/04 10:40:26;;;;;;;4.50;2.40;;;;;;;;;;6243235;23;20022;-80
2022/05/04 10:43:00;;;;;;;3.50;1.80;;;;;;;;;;6244150;23;19993;-81
2022/05/04 10:45:33;;;;;;;4.57;3.00;;;;;;;;;;6243762;23;20051;-80
2022/05/04 10:48:15;;;;;;;4.18;2.03;;;;;;;;;;6243697;23;20274;-78
2022/05/04 10:50:53;;;;;;;4.60;2.22;;;;;;;;;;6243751;23;20000;-81
2022/05/04 10:53:26;;;;;;;31.63;28.15;;;;;;;;;;6244238;23;20415;-84
2022/05/04 10:56:01;;;;;;;4.45;3.10;;;;;;;;;;6243179;23;20519;-80
2022/05/04 10:58:34;;;;;;;2.38;1.70;;;;;;;;;;6243407;23;20699;-78
2022/05/04 11:01:20;;;;;;;2.70;1.70;;;;;;;;;;6216307;23;20053;-78
2022/05/04 11:03:55;;;;;;;2.40;2.20;;;;;;;;;;6243730;23;20027;-80
2022/05/04 11:06:23;;;;;;;3.53;1.92;;;;;;;;;;6242831;23;20420;-82
2022/05/04 11:08:49;;;;;;;2.22;1.90;;;;;;;;;;6243430;23;20011;-81
2022/05/04 11:11:16;;;;;;;5.80;2.60;;;;;;;;;;6243128;23;20082;-82
2022/05/04 11:13:45;;;;;;;3.22;2.58;;;;;;;;;;6242863;23;20018;-82
2022/05/04 11:16:11;;;;;;;3.88;2.63;;;;;;;;;;6243612;23;20008;-78
2022/05/04 11:18:38;;;;;;;10.13;5.90;;;;;;;;;;6242985;23;20066;-80
2022/05/04 11:21:07;;;;;;;9.52;6.03;;;;;;;;;;6243202;23;20000;-81
2022/05/04 11:23:37;;;;;;;5.00;2.95;;;;;;;;;;6243600;23;20075;-81
2022/05/04 11:26:03;;;;;;;7.70;5.60;;;;;;;;;;6244688;23;19996;-83
2022/05/04 11:28:30;;;;;;;3.90;1.80;;;;;;;;;;6216364;23;20408;-81
2022/05/04 11:30:56;;;;;;;2.17;1.80;;;;;;;;;;6242877;23;20325;-86
2022/05/04 11:33:22;;;;;;;2.60;2.00;;;;;;;;;;6243393;23;20011;-82
2022/05/04 11:35:53;;;;;;;3.45;2.10;;;;;;;;;;6242457;23;20008;-79
2022/05/04 11:38:20;;;;;;;1.98;1.77;;;;;;;;;;6217665;23;20000;-80
2022/05/04 11:40:48;;;;;;;4.50;2.65;;;;;;;;;;6244130;23;20000;-81
2022/05/04 11:43:33;;;;;;;8.73;3.38;;;;;;;;;;6245003;23;20102;-79
2022/05/04 11:46:03;;;;;;;5.45;3.03;;;;;;;;;;6244184;23;20008;-79
2022/05/04 11:48:30;;;;;;;5.22;2.67;;;;;;;;;;6244434;23;20043;-80
2022/05/04 11:50:56;;;;;;;5.90;2.33;;;;;;;;;;6244593;23;20032;-83
2022/05/04 11:53:22;;;;;;;8.63;5.95;;;;;;;;;;6219091;23;20007;-80
2022/05/04 11:55:48;;;;;;;3.17;2.85;;;;;;;;;;6245955;23;20456;-83
2022/05/04 11:58:15;;;;;;;4.35;3.58;;;;;;;;;;6246926;23;20004;-78
2022/05/04 12:00:42;;;;;;;5.43;4.25;;;;;;;;;;6246627;23;20491;-82
2022/05/04 12:03:09;;;;;;;1.77;1.55;;;;;;;;;;6245882;23;20071;-81
2022/05/04 12:05:36;;;;;;;2.97;1.90;;;;;;;;;;6246238;23;20451;-84
2022/05/04 12:08:04;;;;;;;3.40;1.92;;;;;;;;;;6245973;23;20455;-80
2022/05/04 12:10:31;;;;;;;4.50;1.35;;;;;;;;;;6246406;23;20078;-85
2022/05/04 12:13:00;;;;;;;3.45;1.77;;;;;;;;;;6246582;23;20034;-82
2022/05/04 12:15:28;;;;;;;3.75;1.63;;;;;;;;;;6246907;23;20004;-81
2022/05/04 12:18:00;;;;;;;3.70;1.50;;;;;;;;;;6245604;23;20778;-82
2022/05/04 12:20:27;;;;;;;3.63;1.90;;;;;;;;;;6247246;23;20004;-80
2022/05/04 12:22:53;;;;;;;3.75;2.22;;;;;;;;;;6219670;23;20066;-81
2022/05/04 12:25:20;;;;;;;4.65;2.17;;;;;;;;;;6246541;23;20007;-79
2022/05/04 12:27:47;;;;;;;2.50;1.67;;;;;;;;;;6246463;23;20063;-79
2022/05/04 12:35:44;;;;;;;5.68;2.58;;;;;;;;;;6245862;23;19911;-82
2022/05/04 12:38:13;;;;;;;3.92;3.30;;;;;;;;;;6245900;23;20019;-79
2022/05/04 12:40:39;;;;;;;4.63;1.90;;;;;;;;;;6245709;23;20026;-79
2022/05/04 12:43:06;;;;;;;4.45;2.30;;;;;;;;;;6245716;23;20019;-79
2022/05/04 12:45:36;;;;;;;2.95;1.83;;;;;;;;;;6245684;23;19996;-81
2022/05/04 12:48:05;;;;;;;3.13;1.50;;;;;;;;;;6246013;23;20007;-83
2022/05/04 12:50:31;;;;;;;3.90;2.05;;;;;;;;;;6244959;23;20004;-79
2022/05/04 12:52:57;;;;;;;1.95;1.75;;;;;;;;;;6245737;23;20048;-82
2022/05/04 12:58:12;;;;;;;3.63;1.77;;;;;;;;;;6245632;23;20015;-81
2022/05/04 13:00:38;;;;;;;3.00;1.88;;;;;;;;;;6244968;23;20079;-84
2022/05/04 13:03:11;;;;;;;5.10;1.70;;;;;;;;;;6245400;23;20000;-83
2022/05/04 13:05:38;;;;;;;3.20;1.93;;;;;;;;;;6246032;23;20083;-81
2022/05/04 13:08:04;;;;;;;4.50;1.77;;;;;;;;;;6246006;23;20000;-84
2022/05/04 13:10:31;;;;;;;1.73;1.55;;;;;;;;;;6245864;23;20015;-77
2022/05/04 13:13:00;;;;;;;4.47;1.77;;;;;;;;;;6245633;23;19996;-81
2022/05/04 13:15:26;;;;;;;2.88;1.60;;;;;;;;;;6245769;23;20000;-78
2022/05/04 13:17:52;;;;;;;2.42;1.50;;;;;;;;;;6245873;23;20008;-83
2022/05/04 13:20:19;;;;;;;5.40;2.00;;;;;;;;;;6245638;23;20000;-80
2022/05/04 13:22:45;;;;;;;5.65;2.42;;;;;;;;;;6246042;23;20058;-83
2022/05/04 13:25:11;;;;;;;6.28;2.00;;;;;;;;;;6245644;23;20324;-82
2022/05/04 13:27:38;;;;;;;4.80;1.73;;;;;;;;;;6245512;23;20000;-79
2022/05/04 13:30:07;;;;;;;3.35;1.67;;;;;;;;;;6245446;23;20006;-79
2022/05/04 13:32:33;;;;;;;3.53;1.40;;;;;;;;;;6245137;23;20038;-81
2022/05/04 13:34:59;;;;;;;2.15;1.60;;;;;;;;;;6245802;23;20004;-79
2022/05/04 13:37:26;;;;;;;2.33;1.45;;;;;;;;;;6245448;23;20008;-80
2022/05/04 13:39:52;;;;;;;3.45;1.50;;;;;;;;;;6245807;23;20000;-80
2022/05/04 13:42:20;;;;;;;2.55;1.45;;;;;;;;;;6245589;23;20337;-80
2022/05/04 13:44:46;;;;;;;1.52;1.30;;;;;;;;;;6245925;23;20000;-84
2022/05/04 13:47:12;;;;;;;2.83;1.20;;;;;;;;;;6245845;23;20001;-83
2022/05/04 13:49:39;;;;;;;2.00;1.58;;;;;;;;;;6245593;23;19996;-82
2022/05/04 13:54:50;;;;;;;2.95;1.83;;;;;;;;;;6245409;23;20114;-82
2022/05/04 13:57:17;;;;;;;2.03;1.52;;;;;;;;;;6245139;23;20011;-84
2022/05/04 13:59:43;;;;;;;5.32;2.13;;;;;;;;;;6245711;23;20015;-81
2022/05/04 14:02:10;;;;;;;2.80;1.90;;;;;;;;;;6245347;23;20011;-84
2022/05/04 14:04:37;;;;;;;6.22;1.55;;;;;;;;;;6218629;23;20507;-83
2022/05/04 14:07:03;;;;;;;3.38;1.50;;;;;;;;;;6245460;23;20428;-82
2022/05/04 14:09:31;;;;;;;2.72;1.48;;;;;;;;;;6245430;23;19997;-83
2022/05/04 14:11:57;;;;;;;2.38;1.60;;;;;;;;;;6245633;23;20482;-83
2022/05/04 14:17:08;;;;;;;;;;;;;;;;;;6245603;23;20023;-83
2022/05/04 14:19:34;;;;;;;2.80;1.27;;;;;;;;;;6245270;23;19903;-84
2022/05/04 14:22:00;;;;;;;8.70;2.08;;;;;;;;;;6243767;23;20000;-77
2022/05/04 14:24:26;;;;;;;3.58;1.40;;;;;;;;;;6243058;23;20004;-79
2022/05/04 14:26:52;;;;;;;2.03;1.23;;;;;;;;;;6245107;23;20000;-82
2022/05/04 14:29:19;;;;;;;3.55;1.67;;;;;;;;;;6245420;23;20016;-82
2022/05/04 14:31:45;;;;;;;6.03;3.70;;;;;;;;;;6245568;23;20020;-80
2022/05/04 14:34:12;;;;;;;1.98;1.52;;;;;;;;;;6245356;23;19996;-79
2022/05/04 14:36:38;;;;;;;1.65;1.52;;;;;;;;;;6245497;23;20015;-81
2022/05/04 14:39:04;;;;;;;2.25;1.58;;;;;;;;;;6245388;23;20424;-80
2022/05/04 14:41:30;;;;;;;2.33;1.55;;;;;;;;;;6245933;23;20019;-81
2022/05/04 14:43:56;;;;;;;2.40;1.30;;;;;;;;;;6245642;23;20084;-78
2022/05/04 14:46:23;;;;;;;5.95;2.10;;;;;;;;;;6245209;23;20501;-81
2022/05/04 14:48:49;;;;;;;2.30;1.65;;;;;;;;;;6245547;23;20001;-81
2022/05/04 14:51:15;;;;;;;4.40;1.48;;;;;;;;;;6218159;23;20428;-80
2022/05/04 14:53:46;;;;;;;3.63;1.88;;;;;;;;;;6246011;23;20011;-81
2022/05/04 14:56:12;;;;;;;2.28;1.40;;;;;;;;;;6245054;23;20020;-81
2022/05/04 14:58:38;;;;;;;2.03;1.50;;;;;;;;;;6245490;23;20000;-82
2022/05/04 15:01:04;;;;;;;3.78;1.40;;;;;;;;;;6218715;23;20004;-81
2022/05/04 15:06:15;;;;;;;3.40;2.03;;;;;;;;;;6245359;23;20015;-82
2022/05/04 15:08:41;;;;;;;3.15;1.55;;;;;;;;;;6245315;23;19996;-81
2022/05/04 15:11:07;;;;;;;2.88;2.45;;;;;;;;;;6244851;23;20074;-79
2022/05/04 15:13:33;;;;;;;3.92;1.65;;;;;;;;;;6244949;23;20054;-83
2022/05/04 15:15:59;;;;;;;2.75;1.73;;;;;;;;;;6246141;23;20008;-80
2022/05/04 15:18:25;;;;;;;4.53;2.95;;;;;;;;;;6245039;23;20003;-80
2022/05/04 15:20:52;;;;;;;5.57;3.63;;;;;;;;;;6217919;23;20046;-79
2022/05/04 15:23:18;;;;;;;7.68;3.40;;;;;;;;;;6244954;23;20004;-79
2022/05/04 15:25:44;;;;;;;6.10;2.03;;;;;;;;;;6218324;23;20314;-82
2022/05/04 15:28:10;;;;;;;7.18;4.97;;;;;;;;;;6244449;23;20001;-81
2022/05/04 15:30:36;;;;;;;4.68;3.80;;;;;;;;;;6245176;23;20004;-81
2022/05/04 15:33:03;;;;;;;4.20;2.10;;;;;;;;;;6244919;23;20301;-81
2022/05/04 15:35:29;;;;;;;3.17;2.13;;;;;;;;;;6245115;23;20019;-80